createdAt,value
2023-04-17T00:01:25.375Z,8.10
2023-04-17T00:03:52.973Z,8.10
2023-04-17T00:06:19.961Z,8.10
2023-04-17T00:08:46.751Z,8.10
2023-04-17T00:11:13.469Z,8.00
2023-04-17T00:13:40.109Z,8.00
2023-04-17T00:16:08.176Z,8.10
2023-04-17T00:18:34.829Z,8.10
2023-04-17T00:21:01.484Z,8.00
2023-04-17T00:23:28.123Z,8.00
2023-04-17T00:25:54.794Z,8.10
2023-04-17T00:28:21.524Z,8.10
2023-04-17T00:30:48.572Z,8.10
2023-04-17T00:33:15.549Z,8.10
2023-04-17T00:35:42.171Z,8.00
2023-04-17T00:38:11.212Z,8.00
2023-04-17T00:40:37.886Z,7.90
2023-04-17T00:43:06.449Z,7.90
2023-04-17T00:45:33.470Z,7.90
2023-04-17T00:48:03.444Z,8.00
2023-04-17T00:50:31.052Z,7.90
2023-04-17T00:52:58.545Z,8.00
2023-04-17T00:55:26.444Z,7.80
2023-04-17T00:57:53.306Z,7.80
2023-04-17T01:00:20.086Z,7.80
2023-04-17T01:02:47.166Z,7.90
2023-04-17T01:05:14.469Z,7.90
2023-04-17T01:07:42.244Z,7.90
2023-04-17T01:10:09.504Z,7.90
2023-04-17T01:12:36.615Z,7.90
2023-04-17T01:15:04.531Z,7.90
2023-04-17T01:17:31.629Z,7.90
2023-04-17T01:19:58.355Z,7.90
2023-04-17T01:22:25.270Z,7.90
2023-04-17T01:24:56.346Z,7.90
2023-04-17T01:27:24.986Z,7.90
2023-04-17T01:29:51.698Z,8.00
2023-04-17T01:32:19.217Z,8.00
2023-04-17T01:34:46.040Z,8.00
2023-04-17T01:37:13.082Z,7.90
2023-04-17T01:39:40.991Z,7.90
2023-04-17T01:42:07.808Z,7.90
2023-04-17T01:44:36.623Z,8.00
2023-04-17T01:47:03.909Z,8.00
2023-04-17T01:49:30.792Z,7.90
2023-04-17T01:51:57.383Z,7.90
2023-04-17T01:54:24.848Z,7.90
2023-04-17T01:56:51.976Z,7.90
2023-04-17T01:59:18.714Z,8.00
2023-04-17T02:01:45.419Z,8.00
2023-04-17T02:04:12.265Z,7.90
2023-04-17T02:06:39.002Z,8.00
2023-04-17T02:09:05.960Z,7.90
2023-04-17T02:11:32.696Z,7.90
2023-04-17T02:13:59.672Z,7.80
2023-04-17T02:16:26.714Z,7.80
2023-04-17T02:18:53.517Z,7.90
2023-04-17T02:21:21.041Z,8.00
2023-04-17T02:23:47.634Z,8.00
2023-04-17T02:26:14.434Z,7.90
2023-04-17T02:28:45.043Z,7.90
2023-04-17T02:31:12.637Z,7.90
2023-04-17T02:33:39.331Z,7.90
2023-04-17T02:36:07.164Z,7.90
2023-04-17T02:38:39.654Z,7.90
2023-04-17T02:41:06.495Z,7.80
2023-04-17T02:43:33.924Z,7.80
2023-04-17T02:46:01.287Z,7.80
2023-04-17T02:48:28.006Z,7.90
2023-04-17T02:50:54.894Z,7.80
2023-04-17T02:53:22.017Z,8.00
2023-04-17T02:55:49.682Z,8.00
2023-04-17T02:58:19.197Z,8.10
2023-04-17T03:00:46.059Z,7.90
2023-04-17T03:03:16.307Z,7.90
2023-04-17T03:05:43.199Z,7.80
2023-04-17T03:08:09.917Z,7.80
2023-04-17T03:10:44.266Z,7.80
2023-04-17T03:13:11.613Z,7.70
2023-04-17T03:15:38.249Z,7.70
2023-04-17T03:18:05.048Z,7.70
2023-04-17T03:20:32.133Z,7.60
2023-04-17T03:23:00.910Z,7.60
2023-04-17T03:25:27.532Z,7.60
2023-04-17T03:27:56.180Z,7.60
2023-04-17T03:30:28.173Z,7.50
2023-04-17T03:32:57.513Z,7.60
2023-04-17T03:35:24.845Z,7.60
2023-04-17T03:37:51.520Z,7.60
2023-04-17T03:40:18.232Z,7.40
2023-04-17T03:42:46.866Z,7.40
2023-04-17T03:45:13.617Z,7.40
2023-04-17T03:47:40.457Z,7.50
2023-04-17T03:50:07.931Z,7.40
2023-04-17T03:52:39.661Z,7.30
2023-04-17T03:55:07.128Z,7.30
2023-04-17T03:57:34.229Z,7.30
2023-04-17T04:00:01.174Z,7.30
2023-04-17T04:02:34.469Z,7.20
2023-04-17T04:05:01.363Z,7.20
2023-04-17T04:07:28.045Z,7.20
2023-04-17T04:09:55.774Z,7.20
2023-04-17T04:12:23.005Z,7.20
2023-04-17T04:14:51.818Z,7.20
2023-04-17T04:17:18.541Z,7.20
2023-04-17T04:19:46.348Z,7.10
2023-04-17T04:22:14.470Z,7.10
2023-04-17T04:24:47.328Z,7.10
2023-04-17T04:27:18.662Z,7.00
2023-04-17T04:29:48.628Z,7.00
2023-04-17T04:32:17.123Z,7.10
2023-04-17T04:34:46.134Z,7.10
2023-04-17T04:37:16.093Z,7.10
2023-04-17T04:39:44.553Z,7.10
2023-04-17T04:42:22.408Z,7.00
2023-04-17T04:45:07.482Z,7.00
2023-04-17T04:47:36.266Z,7.00
2023-04-17T04:50:03.365Z,7.00
2023-04-17T04:52:30.793Z,6.90
2023-04-17T04:55:01.382Z,6.90
2023-04-17T04:57:29.757Z,6.90
2023-04-17T04:59:59.910Z,7.00
2023-04-17T05:02:37.687Z,7.00
2023-04-17T05:05:09.439Z,7.00
2023-04-17T05:07:36.415Z,7.00
2023-04-17T05:10:06.177Z,7.00
2023-04-17T05:12:36.910Z,7.00
2023-04-17T05:15:07.048Z,7.00
2023-04-17T05:17:33.776Z,7.00
2023-04-17T05:20:00.670Z,7.00
2023-04-17T05:22:29.981Z,7.00
2023-04-17T05:25:04.553Z,7.10
2023-04-17T05:27:31.248Z,7.10
2023-04-17T05:29:59.053Z,7.10
2023-04-17T05:32:25.840Z,7.10
2023-04-17T05:34:56.085Z,7.10
2023-04-17T05:37:26.016Z,7.10
2023-04-17T05:39:52.637Z,7.10
2023-04-17T05:42:19.254Z,7.20
2023-04-17T05:44:46.046Z,7.20
2023-04-17T05:47:13.068Z,7.20
2023-04-17T05:49:40.035Z,7.20
2023-04-17T05:52:06.665Z,7.10
2023-04-17T05:54:37.656Z,7.10
2023-04-17T05:57:04.873Z,7.20
2023-04-17T05:59:31.925Z,7.20
2023-04-17T06:01:59.847Z,7.20
2023-04-17T06:04:27.040Z,7.20
2023-04-17T06:06:53.785Z,7.30
2023-04-17T06:09:21.330Z,7.20
2023-04-17T06:11:49.074Z,7.10
2023-04-17T06:14:15.979Z,7.10
2023-04-17T06:16:42.872Z,7.10
2023-04-17T06:19:09.718Z,7.10
2023-04-17T06:21:36.389Z,7.20
2023-04-17T06:24:03.072Z,7.20
2023-04-17T06:26:29.769Z,7.20
2023-04-17T06:28:56.672Z,7.10
2023-04-17T06:31:25.117Z,7.20
2023-04-17T06:33:51.747Z,7.20
2023-04-17T06:36:23.261Z,7.10
2023-04-17T06:38:54.188Z,7.20
2023-04-17T06:41:21.501Z,7.50
2023-04-17T06:43:48.135Z,7.50
2023-04-17T06:46:15.121Z,7.40
2023-04-17T06:48:41.913Z,7.40
2023-04-17T06:51:08.596Z,7.60
2023-04-17T06:53:35.267Z,7.50
2023-04-17T06:56:01.859Z,7.50
2023-04-17T06:58:28.495Z,7.60
2023-04-17T07:00:55.267Z,7.80
2023-04-17T07:03:22.139Z,7.70
2023-04-17T07:05:49.036Z,7.80
2023-04-17T07:08:15.871Z,7.90
2023-04-17T07:10:42.687Z,8.00
2023-04-17T07:13:09.273Z,8.00
2023-04-17T07:15:35.957Z,8.20
2023-04-17T07:18:02.646Z,8.20
2023-04-17T07:20:29.405Z,8.10
2023-04-17T07:22:56.565Z,8.00
2023-04-17T07:25:23.633Z,7.90
2023-04-17T07:27:50.379Z,7.90
2023-04-17T07:30:17.022Z,8.00
2023-04-17T07:32:43.860Z,7.80
2023-04-17T07:35:10.444Z,7.90
2023-04-17T07:37:37.179Z,7.80
2023-04-17T07:40:05.615Z,8.00
2023-04-17T07:42:32.255Z,8.20
2023-04-17T07:44:59.004Z,8.50
2023-04-17T07:47:25.658Z,8.80
2023-04-17T07:49:52.452Z,8.80
2023-04-17T07:52:19.035Z,8.70
2023-04-17T07:54:45.839Z,8.90
2023-04-17T07:57:14.056Z,8.90
2023-04-17T07:59:40.927Z,8.60
2023-04-17T08:02:08.046Z,8.80
2023-04-17T08:04:35.596Z,8.80
2023-04-17T08:07:02.451Z,8.90
2023-04-17T08:09:47.740Z,8.80
2023-04-17T08:12:14.389Z,8.80
2023-04-17T08:14:41.905Z,9.00
2023-04-17T08:17:08.829Z,9.20
2023-04-17T08:19:35.630Z,9.60
2023-04-17T08:22:04.617Z,9.90
2023-04-17T08:24:31.723Z,9.80
2023-04-17T08:26:58.818Z,10.00
2023-04-17T08:29:26.275Z,9.90
2023-04-17T08:32:00.190Z,10.50
2023-04-17T08:34:33.796Z,10.70
2023-04-17T08:37:00.716Z,10.80
2023-04-17T08:39:27.664Z,10.90
2023-04-17T08:42:01.841Z,10.40
2023-04-17T08:44:28.707Z,10.60
2023-04-17T08:46:58.720Z,11.10
2023-04-17T08:49:29.138Z,11.10
2023-04-17T08:51:55.913Z,11.60
2023-04-17T08:54:22.625Z,11.70
2023-04-17T08:56:49.391Z,11.50
2023-04-17T08:59:17.778Z,11.80
2023-04-17T09:02:07.399Z,11.20
2023-04-17T09:04:42.092Z,10.70
2023-04-17T09:07:11.962Z,10.80
2023-04-17T09:09:49.802Z,11.00
2023-04-17T09:12:16.980Z,11.00
2023-04-17T09:14:43.619Z,11.30
2023-04-17T09:17:10.468Z,11.10
2023-04-17T09:19:37.337Z,11.10
2023-04-17T09:22:21.704Z,11.50
2023-04-17T09:24:48.631Z,11.20
2023-04-17T09:27:25.181Z,11.30
2023-04-17T09:30:03.672Z,11.60
2023-04-17T09:32:32.619Z,11.40
2023-04-17T09:35:04.579Z,12.00
2023-04-17T09:37:54.776Z,12.60
2023-04-17T09:40:23.904Z,12.40
2023-04-17T09:43:08.928Z,12.40
2023-04-17T09:45:41.807Z,13.40
2023-04-17T09:48:11.391Z,13.20
2023-04-17T09:50:39.053Z,13.10
2023-04-17T09:53:07.184Z,13.40
2023-04-17T09:55:36.313Z,13.40
2023-04-17T09:58:05.016Z,13.00
2023-04-17T10:00:31.922Z,13.30
2023-04-17T10:02:59.545Z,13.50
2023-04-17T10:05:31.505Z,13.60
2023-04-17T10:07:58.852Z,14.00
2023-04-17T10:10:30.213Z,13.60
2023-04-17T10:13:11.065Z,13.30
2023-04-17T10:15:39.074Z,12.70
2023-04-17T10:18:32.820Z,12.70
2023-04-17T10:21:23.844Z,12.60
2023-04-17T10:23:50.556Z,12.60
2023-04-17T10:26:25.986Z,12.80
2023-04-17T10:28:54.439Z,13.00
2023-04-17T10:31:23.506Z,12.80
2023-04-17T10:33:54.449Z,12.80
2023-04-17T10:36:39.723Z,12.80
2023-04-17T10:39:16.184Z,12.90
2023-04-17T10:42:02.055Z,12.70
2023-04-17T10:44:35.878Z,12.70
2023-04-17T10:47:15.836Z,12.80
2023-04-17T10:49:55.842Z,12.70
2023-04-17T10:52:34.724Z,13.00
2023-04-17T10:55:16.108Z,12.90
2023-04-17T10:57:59.373Z,12.80
2023-04-17T11:00:33.060Z,12.50
2023-04-17T11:03:01.248Z,12.50
2023-04-17T11:05:28.363Z,12.50
2023-04-17T11:07:55.038Z,12.90
2023-04-17T11:10:22.838Z,13.60
2023-04-17T11:12:55.564Z,13.70
2023-04-17T11:15:30.344Z,13.50
2023-04-17T11:17:58.957Z,13.70
2023-04-17T11:20:30.677Z,13.50
2023-04-17T11:23:02.247Z,13.20
2023-04-17T11:25:31.447Z,13.50
2023-04-17T11:27:59.099Z,13.40
2023-04-17T11:30:33.808Z,13.50
2023-04-17T11:33:02.409Z,13.90
2023-04-17T11:35:34.055Z,13.60
2023-04-17T11:38:20.876Z,13.40
2023-04-17T11:40:53.496Z,13.60
2023-04-17T11:43:21.858Z,13.00
2023-04-17T11:45:53.748Z,12.70
2023-04-17T11:48:22.953Z,12.50
2023-04-17T11:50:53.803Z,12.70
2023-04-17T11:53:20.626Z,12.70
2023-04-17T11:55:48.781Z,12.70
2023-04-17T11:58:15.586Z,13.20
2023-04-17T12:00:42.916Z,13.50
2023-04-17T12:03:35.531Z,13.70
2023-04-17T12:06:04.290Z,14.20
2023-04-17T12:08:31.388Z,13.70
2023-04-17T12:10:58.367Z,13.40
2023-04-17T12:13:26.124Z,13.50
2023-04-17T12:15:52.996Z,13.20
2023-04-17T12:18:19.629Z,13.20
2023-04-17T12:20:46.374Z,12.70
2023-04-17T12:23:13.051Z,12.80
2023-04-17T12:25:39.636Z,12.80
2023-04-17T12:28:06.909Z,12.50
2023-04-17T12:30:35.853Z,12.40
2023-04-17T12:33:02.809Z,12.40
2023-04-17T12:35:29.854Z,12.50
2023-04-17T12:37:56.588Z,12.50
2023-04-17T12:40:25.009Z,12.60
2023-04-17T12:42:51.995Z,12.70
2023-04-17T12:45:19.177Z,13.00
2023-04-17T12:47:45.912Z,13.00
2023-04-17T12:50:12.848Z,13.10
2023-04-17T12:52:40.809Z,13.30
2023-04-17T12:55:08.803Z,13.50
2023-04-17T12:57:36.506Z,13.70
2023-04-17T13:00:09.376Z,14.10
2023-04-17T13:02:36.560Z,13.60
2023-04-17T13:05:05.835Z,13.40
2023-04-17T13:07:33.159Z,13.60
2023-04-17T13:09:59.927Z,13.50
2023-04-17T13:12:26.621Z,13.20
2023-04-17T13:14:53.981Z,13.10
2023-04-17T13:17:21.323Z,13.20
2023-04-17T13:19:48.237Z,13.00
2023-04-17T13:22:15.983Z,13.10
2023-04-17T13:24:42.775Z,13.20
2023-04-17T13:27:10.400Z,13.00
2023-04-17T13:29:37.200Z,13.20
2023-04-17T13:32:04.196Z,13.20
2023-04-17T13:34:30.919Z,13.40
2023-04-17T13:36:57.832Z,13.50
2023-04-17T13:39:24.519Z,13.50
2023-04-17T13:41:51.387Z,13.30
2023-04-17T13:44:18.616Z,13.20
2023-04-17T13:46:45.603Z,12.90
2023-04-17T13:49:12.566Z,12.80
2023-04-17T13:51:39.436Z,12.80
2023-04-17T13:54:06.596Z,12.90
2023-04-17T13:56:33.390Z,13.00
2023-04-17T13:59:00.077Z,12.60
2023-04-17T14:01:27.108Z,12.50
2023-04-17T14:03:54.180Z,12.40
2023-04-17T14:06:21.189Z,12.50
2023-04-17T14:08:48.685Z,12.90
2023-04-17T14:11:17.225Z,13.20
2023-04-17T14:13:43.953Z,13.50
2023-04-17T14:16:10.836Z,13.90
2023-04-17T14:18:37.566Z,14.20
2023-04-17T14:21:04.705Z,14.50
2023-04-17T14:23:31.495Z,14.60
2023-04-17T14:25:58.528Z,14.30
2023-04-17T14:28:25.255Z,14.30
2023-04-17T14:30:52.005Z,14.50
2023-04-17T14:33:18.715Z,14.50
2023-04-17T14:35:45.397Z,14.00
2023-04-17T14:38:12.114Z,13.80
2023-04-17T14:40:38.936Z,13.80
2023-04-17T14:43:05.592Z,13.90
2023-04-17T14:45:32.365Z,14.10
2023-04-17T14:47:59.250Z,13.90
2023-04-17T14:50:26.003Z,13.90
2023-04-17T14:52:52.703Z,13.70
2023-04-17T14:55:19.411Z,13.90
2023-04-17T14:57:46.118Z,13.80
2023-04-17T15:00:13.427Z,13.50
2023-04-17T15:02:40.881Z,13.30
2023-04-17T15:05:08.473Z,13.20
2023-04-17T15:07:35.711Z,13.40
2023-04-17T15:10:02.508Z,13.60
2023-04-17T15:12:29.276Z,13.90
2023-04-17T15:14:56.474Z,14.10
2023-04-17T15:17:23.300Z,14.40
2023-04-17T15:19:50.137Z,14.40
2023-04-17T15:22:16.948Z,14.50
2023-04-17T15:24:43.733Z,14.40
2023-04-17T15:27:11.529Z,14.50
2023-04-17T15:29:38.804Z,14.60
2023-04-17T15:32:05.753Z,14.80
2023-04-17T15:34:34.668Z,14.70
2023-04-17T15:37:01.506Z,14.40
2023-04-17T15:39:28.302Z,14.00
2023-04-17T15:41:56.380Z,13.60
2023-04-17T15:44:23.146Z,13.40
2023-04-17T15:46:50.217Z,13.10
2023-04-17T15:49:17.245Z,13.00
2023-04-17T15:51:43.893Z,12.90
2023-04-17T15:54:11.989Z,13.00
2023-04-17T15:56:39.618Z,13.00
2023-04-17T15:59:06.362Z,13.00
2023-04-17T16:01:33.118Z,12.80
2023-04-17T16:04:00.056Z,12.90
2023-04-17T16:06:27.604Z,12.80
2023-04-17T16:08:54.290Z,12.90
2023-04-17T16:11:20.993Z,12.90
2023-04-17T16:13:47.664Z,12.80
2023-04-17T16:16:14.442Z,12.70
2023-04-17T16:18:41.674Z,12.80
2023-04-17T16:21:11.706Z,12.90
2023-04-17T16:23:39.364Z,13.00
2023-04-17T16:26:06.844Z,13.10
2023-04-17T16:28:34.069Z,13.20
2023-04-17T16:31:01.035Z,13.10
2023-04-17T16:33:27.783Z,13.10
2023-04-17T16:35:54.572Z,13.10
2023-04-17T16:38:21.224Z,13.30
2023-04-17T16:40:47.930Z,13.30
2023-04-17T16:43:14.846Z,13.30
2023-04-17T16:45:41.958Z,13.30
2023-04-17T16:48:10.905Z,13.10
2023-04-17T16:50:37.906Z,13.00
2023-04-17T16:53:04.687Z,13.00
2023-04-17T16:55:31.442Z,13.10
2023-04-17T16:58:00.153Z,13.10
2023-04-17T17:00:27.073Z,13.00
2023-04-17T17:02:53.844Z,12.90
2023-04-17T17:05:20.730Z,12.90
2023-04-17T17:07:47.660Z,13.10
2023-04-17T17:10:14.437Z,13.10
2023-04-17T17:12:41.254Z,12.80
2023-04-17T17:15:08.309Z,12.80
2023-04-17T17:17:35.043Z,12.60
2023-04-17T17:20:02.016Z,12.60
2023-04-17T17:22:28.720Z,12.50
2023-04-17T17:24:56.121Z,12.50
2023-04-17T17:27:22.862Z,12.40
2023-04-17T17:29:49.522Z,12.40
2023-04-17T17:32:16.814Z,12.30
2023-04-17T17:34:43.726Z,12.20
2023-04-17T17:37:10.641Z,12.20
2023-04-17T17:39:37.329Z,12.20
2023-04-17T17:42:08.637Z,12.30
2023-04-17T17:44:35.869Z,12.30
2023-04-17T17:47:03.269Z,12.40
2023-04-17T17:49:30.872Z,12.30
2023-04-17T17:51:57.653Z,12.20
2023-04-17T17:54:24.549Z,12.20
2023-04-17T17:56:51.288Z,12.10
2023-04-17T17:59:17.948Z,12.10
2023-04-17T18:01:44.721Z,12.00
2023-04-17T18:04:11.891Z,11.90
2023-04-17T18:06:40.809Z,11.90
2023-04-17T18:09:07.468Z,11.80
2023-04-17T18:11:34.151Z,11.70
2023-04-17T18:14:00.874Z,11.60
2023-04-17T18:16:31.507Z,11.60
2023-04-17T18:19:03.183Z,11.50
2023-04-17T18:21:31.195Z,11.50
2023-04-17T18:23:58.165Z,11.40
2023-04-17T18:26:25.084Z,11.20
2023-04-17T18:28:51.756Z,11.10
2023-04-17T18:31:20.384Z,11.00
2023-04-17T18:33:47.142Z,10.90
2023-04-17T18:36:13.851Z,10.80
2023-04-17T18:38:40.603Z,10.80
2023-04-17T18:41:07.321Z,10.70
2023-04-17T18:43:34.631Z,10.50
2023-04-17T18:46:07.480Z,10.50
2023-04-17T18:48:34.636Z,10.50
2023-04-17T18:51:11.952Z,10.40
2023-04-17T18:53:38.727Z,10.30
2023-04-17T18:56:06.490Z,10.30
2023-04-17T18:58:33.164Z,10.30
2023-04-17T19:01:00.279Z,10.30
2023-04-17T19:03:27.010Z,10.20
2023-04-17T19:05:53.725Z,10.10
2023-04-17T19:08:20.456Z,10.00
2023-04-17T19:10:47.209Z,9.90
2023-04-17T19:13:14.171Z,9.80
2023-04-17T19:15:40.874Z,9.70
2023-04-17T19:18:08.887Z,9.40
2023-04-17T19:20:39.832Z,9.40
2023-04-17T19:23:06.493Z,9.20
2023-04-17T19:25:33.213Z,9.10
2023-04-17T19:27:59.900Z,9.10
2023-04-17T19:30:26.691Z,9.00
2023-04-17T19:32:53.371Z,8.90
2023-04-17T19:35:20.152Z,8.80
2023-04-17T19:37:46.902Z,8.60
2023-04-17T19:40:24.465Z,8.50
2023-04-17T19:42:51.594Z,8.50
2023-04-17T19:45:19.369Z,8.40
2023-04-17T19:47:46.214Z,8.20
2023-04-17T19:50:12.908Z,8.10
2023-04-17T19:52:39.894Z,7.90
2023-04-17T19:55:09.777Z,7.90
2023-04-17T19:57:36.455Z,7.80
2023-04-17T20:00:03.793Z,7.80
2023-04-17T20:02:39.410Z,7.80
2023-04-17T20:05:07.109Z,7.70
2023-04-17T20:07:33.839Z,7.90
2023-04-17T20:10:01.218Z,8.00
2023-04-17T20:12:28.567Z,8.30
2023-04-17T20:14:55.264Z,8.70
2023-04-17T20:17:21.982Z,8.70
2023-04-17T20:19:48.627Z,8.80
2023-04-17T20:22:15.339Z,8.80
2023-04-17T20:24:42.033Z,8.80
2023-04-17T20:27:08.654Z,8.70
2023-04-17T20:29:35.912Z,8.70
2023-04-17T20:32:03.741Z,8.60
2023-04-17T20:34:34.838Z,8.60
2023-04-17T20:37:02.032Z,8.60
2023-04-17T20:39:29.017Z,8.50
2023-04-17T20:41:56.299Z,8.50
2023-04-17T20:44:23.021Z,8.40
2023-04-17T20:46:49.764Z,8.40
2023-04-17T20:49:16.528Z,8.20
2023-04-17T20:51:44.266Z,8.20
2023-04-17T20:54:11.186Z,8.10
2023-04-17T20:56:37.998Z,8.00
2023-04-17T20:59:04.726Z,8.00
2023-04-17T21:01:31.468Z,7.90
2023-04-17T21:03:58.380Z,7.80
2023-04-17T21:06:26.594Z,7.70
2023-04-17T21:08:54.073Z,7.70
2023-04-17T21:11:21.463Z,7.60
2023-04-17T21:13:48.352Z,7.50
2023-04-17T21:16:15.070Z,7.40
2023-04-17T21:18:41.804Z,7.40
2023-04-17T21:21:08.474Z,7.30
2023-04-17T21:23:35.138Z,7.30
2023-04-17T21:26:01.993Z,7.30
2023-04-17T21:28:28.766Z,7.20
2023-04-17T21:30:55.365Z,7.30
2023-04-17T21:33:22.420Z,7.30
2023-04-17T21:35:49.062Z,7.30
2023-04-17T21:38:15.855Z,7.20
2023-04-17T21:40:51.103Z,7.20
2023-04-17T21:43:18.450Z,7.10
2023-04-17T21:45:45.253Z,7.00
2023-04-17T21:48:11.928Z,6.90
2023-04-17T21:50:41.090Z,6.90
2023-04-17T21:53:08.166Z,6.90
2023-04-17T21:55:35.486Z,6.80
2023-04-17T21:58:02.245Z,6.70
2023-04-17T22:00:29.037Z,6.70
2023-04-17T22:02:55.739Z,6.60
2023-04-17T22:05:22.526Z,6.60
2023-04-17T22:07:54.868Z,6.60
2023-04-17T22:10:23.288Z,6.50
2023-04-17T22:12:50.560Z,6.40
2023-04-17T22:15:17.361Z,6.30
2023-04-17T22:17:44.568Z,6.40
2023-04-17T22:20:11.776Z,6.30
2023-04-17T22:22:38.459Z,6.30
2023-04-17T22:25:05.675Z,6.30
2023-04-17T22:27:32.528Z,6.20
2023-04-17T22:29:59.389Z,6.20
2023-04-17T22:32:26.152Z,6.10
2023-04-17T22:34:52.818Z,6.10
2023-04-17T22:37:19.523Z,6.10
2023-04-17T22:39:46.241Z,6.00
2023-04-17T22:42:12.864Z,6.00
2023-04-17T22:44:39.552Z,6.00
2023-04-17T22:47:06.195Z,6.00
2023-04-17T22:49:37.975Z,6.00
2023-04-17T22:52:06.144Z,6.00
2023-04-17T22:54:33.622Z,5.90
2023-04-17T22:57:00.441Z,5.90
2023-04-17T22:59:27.275Z,5.90
2023-04-17T23:01:54.499Z,5.90
2023-04-17T23:04:23.051Z,5.90
2023-04-17T23:06:50.266Z,5.90
2023-04-17T23:09:16.897Z,5.90
2023-04-17T23:11:43.625Z,5.90
2023-04-17T23:14:11.319Z,5.90
2023-04-17T23:16:38.173Z,5.80
2023-04-17T23:19:05.029Z,5.80
2023-04-17T23:21:31.792Z,5.80
2023-04-17T23:23:58.493Z,5.80
2023-04-17T23:26:25.743Z,5.80
2023-04-17T23:28:52.455Z,5.80
2023-04-17T23:31:19.546Z,5.80
2023-04-17T23:33:46.228Z,5.80
2023-04-17T23:36:13.526Z,5.80
2023-04-17T23:38:40.255Z,5.80
2023-04-17T23:41:07.053Z,5.70
2023-04-17T23:43:33.695Z,5.70
2023-04-17T23:46:00.742Z,5.70
2023-04-17T23:48:28.070Z,5.70
2023-04-17T23:50:54.887Z,5.70
2023-04-17T23:53:21.523Z,5.60
2023-04-17T23:55:48.189Z,5.60
2023-04-17T23:58:14.917Z,5.60
